Time;durP1;ratioP1;P1;durP2;ratioP2;P2;SDS_P1;SDS_P2;PMS_P1;PMS_P2;Temp;Humidity;BMP_temperature;BMP_pressure;BME280_temperature;BME280_humidity;BME280_pressure;Samples;Min_cycle;Max_cycle;Signal;HPM_P1;HPM_P2
2023/01/14 00:00:20;;;;;;;;;;;9.30;99.90;;;;;;2027309;29;19918;-70
2023/01/14 00:01:21;;;;;;;;;;;9.30;99.90;;;;;;2024422;29;20327;-70
2023/01/14 00:02:21;;;;;;;;;;;9.30;99.90;;;;;;2024308;29;19926;-70
2023/01/14 00:03:22;;;;;;;;;;;9.30;99.90;;;;;;2023692;29;20009;-70
2023/01/14 00:04:22;;;;;;;;;;;9.30;99.90;;;;;;2023076;29;19916;-70
2023/01/14 00:05:23;;;;;;;;;;;9.30;99.90;;;;;;2022925;29;19914;-70
2023/01/14 00:06:25;;;;;;;;;;;9.30;99.90;;;;;;2024460;29;19919;-70
2023/01/14 00:07:25;;;;;;;;;;;9.30;99.90;;;;;;2026930;29;19907;-70
2023/01/14 00:08:26;;;;;;;;;;;9.30;99.90;;;;;;2025205;29;19923;-70
2023/01/14 00:09:29;;;;;;;;;;;9.30;99.90;;;;;;2024742;29;19923;-70
2023/01/14 00:10:30;;;;;;;;;;;9.30;99.90;;;;;;2026393;29;19930;-70
2023/01/14 00:11:45;;;;;;;;;;;9.30;99.90;;;;;;2018653;29;19918;-70
2023/01/14 00:12:46;;;;;;;;;;;9.30;99.90;;;;;;2021558;29;19940;-70
2023/01/14 00:13:46;;;;;;;;;;;9.30;99.90;;;;;;2023251;29;19976;-70
2023/01/14 00:14:47;;;;;;;;;;;9.30;99.90;;;;;;2023761;29;19914;-70
2023/01/14 00:15:48;;;;;;;;;;;9.30;99.90;;;;;;2023943;29;19955;-70
2023/01/14 00:16:49;;;;;;;;;;;9.30;99.90;;;;;;2024505;29;19907;-70
2023/01/14 00:17:50;;;;;;;;;;;9.30;99.90;;;;;;2024342;29;19916;-70
2023/01/14 00:18:50;;;;;;;;;;;9.30;99.90;;;;;;2025122;29;20013;-70
2023/01/14 00:19:51;;;;;;;;;;;9.30;99.90;;;;;;2024824;29;20002;-70
2023/01/14 00:20:55;;;;;;;;;;;9.30;99.90;;;;;;2025942;29;19916;-70
2023/01/14 00:21:56;;;;;;;;;;;9.20;99.90;;;;;;2021454;29;20490;-70
2023/01/14 00:22:56;;;;;;;;;;;9.30;99.90;;;;;;2027114;29;20283;-70
2023/01/14 00:23:57;;;;;;;;;;;9.20;99.90;;;;;;2025155;29;19950;-70
2023/01/14 00:24:57;;;;;;;;;;;9.20;99.90;;;;;;2024791;29;19917;-70
2023/01/14 00:26:01;;;;;;;;;;;9.20;99.90;;;;;;2024259;29;20006;-70
2023/01/14 00:27:01;;;;;;;;;;;9.20;99.90;;;;;;2025083;29;20462;-70
2023/01/14 00:28:02;;;;;;;;;;;9.20;99.90;;;;;;2026625;29;20385;-70
2023/01/14 00:29:03;;;;;;;;;;;9.20;99.90;;;;;;2026561;29;19915;-70
2023/01/14 00:30:04;;;;;;;;;;;9.20;99.90;;;;;;2025148;29;19988;-70
2023/01/14 00:31:06;;;;;;;;;;;9.20;99.90;;;;;;2023699;29;19911;-70
2023/01/14 00:32:06;;;;;;;;;;;9.20;99.90;;;;;;2024392;29;19919;-70
2023/01/14 00:33:07;;;;;;;;;;;9.20;99.90;;;;;;2027522;29;19911;-70
2023/01/14 00:34:08;;;;;;;;;;;9.20;99.90;;;;;;2027047;29;19960;-70
2023/01/14 00:35:08;;;;;;;;;;;9.10;99.90;;;;;;2022276;29;19923;-70
2023/01/14 00:36:10;;;;;;;;;;;9.20;99.90;;;;;;2025897;29;20352;-70
2023/01/14 00:37:10;;;;;;;;;;;9.10;99.90;;;;;;2023480;29;19908;-70
2023/01/14 00:38:11;;;;;;;;;;;9.10;99.90;;;;;;2025081;29;19918;-70
2023/01/14 00:39:12;;;;;;;;;;;9.10;99.90;;;;;;2025234;29;19915;-70
2023/01/14 00:40:13;;;;;;;;;;;9.10;99.90;;;;;;2024603;29;19958;-70
2023/01/14 00:41:14;;;;;;;;;;;9.10;99.90;;;;;;2021803;29;20003;-70
2023/01/14 00:42:15;;;;;;;;;;;9.10;99.90;;;;;;2023835;29;20296;-70
2023/01/14 00:43:15;;;;;;;;;;;9.10;99.90;;;;;;2030710;29;20021;-70
2023/01/14 00:44:17;;;;;;;;;;;9.10;99.90;;;;;;2032353;29;20365;-70
2023/01/14 00:45:17;;;;;;;;;;;9.10;99.90;;;;;;2023941;29;19915;-70
2023/01/14 00:46:19;;;;;;;;;;;9.10;99.90;;;;;;2023615;29;19916;-71
2023/01/14 00:47:20;;;;;;;;;;;9.10;99.90;;;;;;2025586;29;19978;-71
2023/01/14 00:48:20;;;;;;;;;;;9.10;99.90;;;;;;2024586;29;19915;-71
2023/01/14 00:49:22;;;;;;;;;;;9.10;99.90;;;;;;2024527;29;20697;-71
2023/01/14 00:50:22;;;;;;;;;;;9.10;99.90;;;;;;2025982;29;19971;-71
2023/01/14 00:51:23;;;;;;;;;;;9.10;99.90;;;;;;2022473;29;19994;-71
2023/01/14 00:52:23;;;;;;;;;;;9.10;99.90;;;;;;2024925;29;19977;-71
2023/01/14 00:53:24;;;;;;;;;;;9.10;99.90;;;;;;2025036;29;19918;-71
2023/01/14 00:54:24;;;;;;;;;;;9.10;99.90;;;;;;2025223;29;19916;-71
2023/01/14 00:55:24;;;;;;;;;;;9.10;99.90;;;;;;2025716;29;19912;-71
2023/01/14 00:56:25;;;;;;;;;;;9.10;99.90;;;;;;2022982;29;20027;-71
2023/01/14 00:57:25;;;;;;;;;;;9.10;99.90;;;;;;2025260;29;19911;-71
2023/01/14 00:58:26;;;;;;;;;;;9.10;99.90;;;;;;2025042;29;19912;-72
2023/01/14 00:59:26;;;;;;;;;;;9.10;99.90;;;;;;2025890;29;20007;-71
2023/01/14 01:00:27;;;;;;;;;;;9.10;99.90;;;;;;2023643;29;19919;-71
2023/01/14 01:01:27;;;;;;;;;;;9.10;99.90;;;;;;2021121;29;19920;-71
2023/01/14 01:02:28;;;;;;;;;;;9.10;99.90;;;;;;2026109;29;19958;-71
2023/01/14 01:03:28;;;;;;;;;;;9.10;99.90;;;;;;2024213;29;19915;-71
2023/01/14 01:04:29;;;;;;;;;;;9.10;99.90;;;;;;2023579;29;19907;-71
2023/01/14 01:05:33;;;;;;;;;;;9.10;99.90;;;;;;2022951;29;19950;-71
2023/01/14 01:06:33;;;;;;;;;;;9.10;99.90;;;;;;2023955;29;20618;-71
2023/01/14 01:07:33;;;;;;;;;;;9.10;99.90;;;;;;2023707;29;20014;-71
2023/01/14 01:08:34;;;;;;;;;;;9.10;99.90;;;;;;2024941;29;19915;-71
2023/01/14 01:09:34;;;;;;;;;;;9.10;99.90;;;;;;2024369;29;19962;-71
2023/01/14 01:10:35;;;;;;;;;;;9.10;99.90;;;;;;2025200;29;20414;-71
2023/01/14 01:11:36;;;;;;;;;;;9.10;99.90;;;;;;2020977;29;20537;-71
2023/01/14 01:12:36;;;;;;;;;;;9.10;99.90;;;;;;2023833;29;20034;-71
2023/01/14 01:13:37;;;;;;;;;;;9.10;99.90;;;;;;2024256;29;19907;-71
2023/01/14 01:14:37;;;;;;;;;;;9.10;99.90;;;;;;2022982;29;19915;-71
2023/01/14 01:15:38;;;;;;;;;;;9.10;99.90;;;;;;2024667;29;20008;-71
2023/01/14 01:16:40;;;;;;;;;;;9.10;99.90;;;;;;2022803;29;19983;-71
2023/01/14 01:17:40;;;;;;;;;;;9.10;99.90;;;;;;2024787;29;19919;-72
2023/01/14 01:18:41;;;;;;;;;;;9.10;99.90;;;;;;2025507;29;19908;-71
2023/01/14 01:19:41;;;;;;;;;;;9.10;99.90;;;;;;2025331;29;19959;-71
2023/01/14 01:20:42;;;;;;;;;;;9.10;99.90;;;;;;2024246;29;20390;-71
2023/01/14 01:21:42;;;;;;;;;;;9.10;99.90;;;;;;2020963;29;19926;-71
2023/01/14 01:22:43;;;;;;;;;;;9.10;99.90;;;;;;2023518;29;20533;-71
2023/01/14 01:23:44;;;;;;;;;;;9.10;99.90;;;;;;2024403;29;19920;-71
2023/01/14 01:24:45;;;;;;;;;;;9.10;99.90;;;;;;2025005;29;20333;-71
2023/01/14 01:25:45;;;;;;;;;;;9.10;99.90;;;;;;2023406;29;19962;-71
2023/01/14 01:26:47;;;;;;;;;;;9.10;99.90;;;;;;2024139;29;19911;-71
2023/01/14 01:27:48;;;;;;;;;;;9.10;99.90;;;;;;2024611;29;19911;-71
2023/01/14 01:28:53;;;;;;;;;;;9.10;99.90;;;;;;2023073;29;19923;-71
2023/01/14 01:29:53;;;;;;;;;;;9.10;99.90;;;;;;2023691;29;19908;-71
2023/01/14 01:30:58;;;;;;;;;;;9.10;99.90;;;;;;2024053;29;19918;-71
2023/01/14 01:31:59;;;;;;;;;;;9.10;99.90;;;;;;2021941;29;20007;-71
2023/01/14 01:33:01;;;;;;;;;;;9.10;99.90;;;;;;2025007;29;19923;-71
2023/01/14 01:34:01;;;;;;;;;;;9.10;99.90;;;;;;2023209;29;19977;-71
2023/01/14 01:35:02;;;;;;;;;;;9.10;99.90;;;;;;2022662;29;19923;-71
2023/01/14 01:36:06;;;;;;;;;;;9.10;99.90;;;;;;2020893;29;19973;-71
2023/01/14 01:37:07;;;;;;;;;;;9.10;99.90;;;;;;2024120;29;20313;-71
2023/01/14 01:38:07;;;;;;;;;;;9.10;99.90;;;;;;2025380;29;19915;-71
2023/01/14 01:39:08;;;;;;;;;;;9.10;99.90;;;;;;2024534;29;19911;-71
2023/01/14 01:40:09;;;;;;;;;;;9.10;99.90;;;;;;2024741;29;19911;-71
2023/01/14 01:41:13;;;;;;;;;;;9.10;99.90;;;;;;2023537;29;20415;-71
2023/01/14 01:42:15;;;;;;;;;;;9.10;99.90;;;;;;2023251;29;19915;-71
2023/01/14 01:43:16;;;;;;;;;;;9.10;99.90;;;;;;2024125;29;19921;-71
2023/01/14 01:44:16;;;;;;;;;;;9.10;99.90;;;;;;2023813;29;19927;-71
2023/01/14 01:45:36;;;;;;;;;;;9.10;99.90;;;;;;2023076;29;19945;-71
2023/01/14 01:46:37;;;;;;;;;;;9.10;99.90;;;;;;2023051;29;19966;-71
2023/01/14 01:47:37;;;;;;;;;;;9.10;99.90;;;;;;2023901;29;19916;-71
2023/01/14 01:48:39;;;;;;;;;;;9.10;99.90;;;;;;2029623;29;19926;-71
2023/01/14 01:49:40;;;;;;;;;;;9.10;99.90;;;;;;2032199;29;20021;-71
2023/01/14 01:50:41;;;;;;;;;;;9.10;99.90;;;;;;2025242;29;19908;-71
2023/01/14 01:51:47;;;;;;;;;;;9.10;99.90;;;;;;2021874;29;19919;-71
2023/01/14 01:52:48;;;;;;;;;;;9.10;99.90;;;;;;2025580;29;19963;-71
2023/01/14 01:53:51;;;;;;;;;;;9.10;99.90;;;;;;2024577;29;19959;-71
2023/01/14 01:54:55;;;;;;;;;;;9.10;99.90;;;;;;2023990;29;19967;-71
2023/01/14 01:55:56;;;;;;;;;;;9.10;99.90;;;;;;2023136;29;19959;-71
2023/01/14 01:56:57;;;;;;;;;;;9.10;99.90;;;;;;2024211;29;20296;-71
2023/01/14 01:57:58;;;;;;;;;;;9.10;99.90;;;;;;2024416;29;19933;-72
2023/01/14 01:59:01;;;;;;;;;;;9.10;99.90;;;;;;2024775;29;19922;-71
2023/01/14 02:00:05;;;;;;;;;;;9.10;99.90;;;;;;2025763;29;20366;-71
2023/01/14 02:01:06;;;;;;;;;;;9.10;99.90;;;;;;2024630;29;20291;-70
2023/01/14 02:02:06;;;;;;;;;;;9.10;99.90;;;;;;2022294;29;20014;-70
2023/01/14 02:03:10;;;;;;;;;;;9.10;99.90;;;;;;2023750;29;19911;-70
2023/01/14 02:04:11;;;;;;;;;;;9.10;99.90;;;;;;2026877;29;19914;-70
2023/01/14 02:05:11;;;;;;;;;;;9.10;99.90;;;;;;2024770;29;20028;-70
2023/01/14 02:06:12;;;;;;;;;;;9.10;99.90;;;;;;2023415;29;19927;-70
2023/01/14 02:07:15;;;;;;;;;;;9.10;99.90;;;;;;2026412;29;20291;-70
2023/01/14 02:08:15;;;;;;;;;;;9.10;99.90;;;;;;2026814;29;19922;-70
2023/01/14 02:09:16;;;;;;;;;;;9.10;99.90;;;;;;2025400;29;19945;-70
2023/01/14 02:10:17;;;;;;;;;;;9.00;99.90;;;;;;2023449;29;19926;-70
2023/01/14 02:11:43;;;;;;;;;;;9.10;99.90;;;;;;2023670;29;20350;-70
2023/01/14 02:12:52;;;;;;;;;;;9.00;99.90;;;;;;2009843;29;19980;-70
2023/01/14 02:13:52;;;;;;;;;;;9.00;99.90;;;;;;2024222;29;19926;-70
2023/01/14 02:15:04;;;;;;;;;;;9.00;99.90;;;;;;2026557;29;19913;-70
2023/01/14 02:16:25;;;;;;;;;;;9.00;99.90;;;;;;2025051;29;19916;-70
2023/01/14 02:17:32;;;;;;;;;;;9.00;99.90;;;;;;2027423;29;19922;-70
2023/01/14 02:18:39;;;;;;;;;;;9.00;99.90;;;;;;2025299;29;19931;-70
2023/01/14 02:19:49;;;;;;;;;;;9.00;99.90;;;;;;2025895;29;20836;-70
2023/01/14 02:21:16;;;;;;;;;;;9.00;99.90;;;;;;2024471;29;20440;-70
2023/01/14 02:22:36;;;;;;;;;;;8.90;99.90;;;;;;2022102;29;19922;-70
2023/01/14 02:23:48;;;;;;;;;;;8.90;99.90;;;;;;2026991;29;19997;-70
2023/01/14 02:24:55;;;;;;;;;;;9.00;99.90;;;;;;2025797;29;19907;-70
2023/01/14 02:26:01;;;;;;;;;;;8.90;99.90;;;;;;2025260;29;19915;-70
2023/01/14 02:27:20;;;;;;;;;;;9.00;99.90;;;;;;2026166;29;20365;-70
2023/01/14 02:28:44;;;;;;;;;;;9.00;99.90;;;;;;2034853;29;19915;-70
2023/01/14 02:29:44;;;;;;;;;;;8.90;99.90;;;;;;2028934;29;19919;-70
2023/01/14 02:31:03;;;;;;;;;;;8.90;99.90;;;;;;2024579;29;19951;-70
2023/01/14 02:32:21;;;;;;;;;;;8.90;99.90;;;;;;2024515;29;19922;-70
2023/01/14 02:33:35;;;;;;;;;;;8.90;99.90;;;;;;2024572;29;19958;-70
2023/01/14 02:34:48;;;;;;;;;;;8.90;99.90;;;;;;2025126;29;20356;-70
2023/01/14 02:35:53;;;;;;;;;;;8.90;99.90;;;;;;2024145;29;19917;-70
2023/01/14 02:37:06;;;;;;;;;;;8.80;99.90;;;;;;2028430;29;19916;-70
2023/01/14 02:38:29;;;;;;;;;;;8.80;99.90;;;;;;2027021;29;19970;-70
2023/01/14 02:39:35;;;;;;;;;;;8.80;99.90;;;;;;2025999;29;20359;-70
2023/01/14 02:40:48;;;;;;;;;;;8.80;99.90;;;;;;2024882;29;19919;-70
2023/01/14 02:44:36;;;;;;;;;;;8.80;99.90;;;;;;2026484;29;19919;-70
2023/01/14 02:45:40;;;;;;;;;;;8.70;99.90;;;;;;2026760;29;19911;-70
2023/01/14 02:46:44;;;;;;;;;;;8.80;99.90;;;;;;2022870;29;19911;-70
2023/01/14 02:47:45;;;;;;;;;;;8.70;99.90;;;;;;2031101;29;19935;-70
2023/01/14 02:48:47;;;;;;;;;;;8.70;99.90;;;;;;2032026;29;19911;-70
2023/01/14 02:49:49;;;;;;;;;;;8.70;99.90;;;;;;2025120;29;19912;-70
2023/01/14 02:50:50;;;;;;;;;;;8.70;99.90;;;;;;2025330;29;19971;-70
2023/01/14 02:51:51;;;;;;;;;;;8.70;99.90;;;;;;2026225;29;19907;-70
2023/01/14 02:52:52;;;;;;;;;;;8.70;99.90;;;;;;2023958;29;19951;-70
2023/01/14 02:53:52;;;;;;;;;;;8.70;99.90;;;;;;2032780;29;20336;-70
2023/01/14 02:55:00;;;;;;;;;;;8.70;99.90;;;;;;2033576;29;19911;-70
2023/01/14 02:56:02;;;;;;;;;;;8.70;99.90;;;;;;2023345;29;19911;-70
2023/01/14 02:57:04;;;;;;;;;;;8.60;99.90;;;;;;2026190;29;19914;-70
2023/01/14 02:58:23;;;;;;;;;;;8.60;99.90;;;;;;2027873;29;19983;-70
2023/01/14 02:59:35;;;;;;;;;;;8.60;99.90;;;;;;2029498;29;20367;-70
2023/01/14 03:00:55;;;;;;;;;;;8.60;99.90;;;;;;2024653;29;19954;-70
2023/01/14 03:02:24;;;;;;;;;;;8.60;99.90;;;;;;2024295;29;19915;-70
2023/01/14 03:03:32;;;;;;;;;;;8.60;99.90;;;;;;2026196;29;20013;-70
2023/01/14 03:04:40;;;;;;;;;;;8.60;99.90;;;;;;2026710;29;19967;-70
2023/01/14 03:05:59;;;;;;;;;;;8.60;99.90;;;;;;2025887;29;19934;-70
2023/01/14 03:07:18;;;;;;;;;;;8.60;99.90;;;;;;2024924;29;19928;-70
2023/01/14 03:08:48;;;;;;;;;;;8.50;99.90;;;;;;2023513;29;20268;-70
2023/01/14 03:10:02;;;;;;;;;;;8.60;99.90;;;;;;2015316;29;19915;-70
2023/01/14 03:11:05;;;;;;;;;;;8.60;99.90;;;;;;2023494;29;19922;-70
2023/01/14 03:12:20;;;;;;;;;;;8.60;99.90;;;;;;2027323;29;20451;-70
2023/01/14 03:13:24;;;;;;;;;;;8.60;99.90;;;;;;2024766;29;20617;-70
2023/01/14 03:14:51;;;;;;;;;;;8.50;99.90;;;;;;2025423;29;19911;-70
2023/01/14 03:15:54;;;;;;;;;;;8.50;99.90;;;;;;2023099;29;19919;-70
2023/01/14 03:16:58;;;;;;;;;;;8.50;99.90;;;;;;2022842;29;19951;-70
2023/01/14 03:18:07;;;;;;;;;;;8.50;99.90;;;;;;2024885;29;19911;-70
2023/01/14 03:19:31;;;;;;;;;;;8.50;99.90;;;;;;2024916;29;19915;-70
2023/01/14 03:20:33;;;;;;;;;;;8.50;99.90;;;;;;2025093;29;20298;-70
2023/01/14 03:21:35;;;;;;;;;;;8.50;99.90;;;;;;2023192;29;19915;-70
2023/01/14 03:22:36;;;;;;;;;;;8.50;99.90;;;;;;2023718;29;20296;-70
2023/01/14 03:23:40;;;;;;;;;;;8.50;99.90;;;;;;2025011;29;19933;-70
2023/01/14 03:24:44;;;;;;;;;;;8.50;99.90;;;;;;2025218;29;19911;-70
2023/01/14 03:25:46;;;;;;;;;;;8.50;99.90;;;;;;2023971;29;20375;-70
2023/01/14 03:26:47;;;;;;;;;;;8.40;99.90;;;;;;2024896;29;19918;-70
2023/01/14 03:27:49;;;;;;;;;;;8.40;99.90;;;;;;2023491;29;19920;-70
2023/01/14 03:28:50;;;;;;;;;;;8.40;99.90;;;;;;2023780;29;20006;-70
2023/01/14 03:29:54;;;;;;;;;;;8.40;99.90;;;;;;2025972;29;19918;-70
2023/01/14 03:30:59;;;;;;;;;;;8.40;99.90;;;;;;2031883;29;20279;-70
2023/01/14 03:32:06;;;;;;;;;;;8.40;99.90;;;;;;2031512;29;19915;-70
2023/01/14 03:33:08;;;;;;;;;;;8.40;99.90;;;;;;2023460;29;19962;-70
2023/01/14 03:34:11;;;;;;;;;;;8.40;99.90;;;;;;2025995;29;19912;-70
2023/01/14 03:35:15;;;;;;;;;;;8.40;99.90;;;;;;2026226;29;19999;-70
2023/01/14 03:36:16;;;;;;;;;;;8.40;99.90;;;;;;2024188;29;19915;-70
2023/01/14 03:37:18;;;;;;;;;;;8.40;99.90;;;;;;2025500;29;20383;-70
2023/01/14 03:38:21;;;;;;;;;;;8.40;99.90;;;;;;2025501;29;19911;-70
2023/01/14 03:39:23;;;;;;;;;;;8.40;99.90;;;;;;2022166;29;20391;-70
2023/01/14 03:40:26;;;;;;;;;;;8.40;99.90;;;;;;2024071;29;19919;-70
2023/01/14 03:42:48;;;;;;;;;;;8.40;99.90;;;;;;2024435;29;19915;-70
2023/01/14 03:43:51;;;;;;;;;;;8.40;99.90;;;;;;2024855;29;19959;-70
2023/01/14 03:45:08;;;;;;;;;;;8.50;99.90;;;;;;2025575;29;20398;-70
2023/01/14 03:46:09;;;;;;;;;;;8.40;99.90;;;;;;2024787;29;19911;-70
2023/01/14 03:47:10;;;;;;;;;;;8.40;99.90;;;;;;2025123;29;19917;-70
2023/01/14 03:48:10;;;;;;;;;;;8.40;99.90;;;;;;2023668;29;20477;-70
2023/01/14 03:49:11;;;;;;;;;;;8.40;99.90;;;;;;2023843;29;19926;-70
2023/01/14 03:50:13;;;;;;;;;;;8.40;99.90;;;;;;2023915;29;20413;-70
2023/01/14 03:51:21;;;;;;;;;;;8.40;99.90;;;;;;2023713;29;19911;-70
2023/01/14 03:52:30;;;;;;;;;;;8.40;99.90;;;;;;2025665;29;19978;-70
2023/01/14 03:53:30;;;;;;;;;;;8.40;99.90;;;;;;2025804;29;19912;-70
2023/01/14 03:54:36;;;;;;;;;;;8.40;99.90;;;;;;2025320;29;19918;-70
2023/01/14 03:55:55;;;;;;;;;;;8.40;99.90;;;;;;2026586;29;20350;-70
2023/01/14 03:57:03;;;;;;;;;;;8.40;99.90;;;;;;2023702;29;20051;-70
2023/01/14 03:58:15;;;;;;;;;;;8.40;99.90;;;;;;2020572;29;19916;-70
2023/01/14 03:59:35;;;;;;;;;;;8.40;99.90;;;;;;2024616;29;20022;-70
2023/01/14 04:00:41;;;;;;;;;;;8.40;99.90;;;;;;2031876;29;19962;-70
2023/01/14 04:01:42;;;;;;;;;;;8.40;99.90;;;;;;2028745;29;20302;-70
2023/01/14 04:02:44;;;;;;;;;;;8.30;99.90;;;;;;2024383;29;20722;-70
2023/01/14 04:03:45;;;;;;;;;;;8.40;99.90;;;;;;2023278;29;19966;-70
2023/01/14 04:04:46;;;;;;;;;;;8.40;99.90;;;;;;2026175;29;19922;-70
2023/01/14 04:05:47;;;;;;;;;;;8.30;99.90;;;;;;2025547;29;19911;-70
2023/01/14 04:06:48;;;;;;;;;;;8.30;99.90;;;;;;2024939;29;19918;-70
2023/01/14 04:07:49;;;;;;;;;;;8.40;99.90;;;;;;2024172;29;19958;-70
2023/01/14 04:08:50;;;;;;;;;;;8.30;99.90;;;;;;2025267;29;19922;-70
2023/01/14 04:09:50;;;;;;;;;;;8.30;99.90;;;;;;2032472;29;19911;-70
2023/01/14 04:10:51;;;;;;;;;;;8.30;99.90;;;;;;2032906;29;19911;-70
2023/01/14 04:11:51;;;;;;;;;;;8.30;99.90;;;;;;2022447;29;19919;-70
2023/01/14 04:15:30;;;;;;;;;;;8.30;99.90;;;;;;2024768;29;19920;-70
2023/01/14 04:16:31;;;;;;;;;;;8.30;99.90;;;;;;2027153;29;20324;-70
2023/01/14 04:17:33;;;;;;;;;;;8.30;99.90;;;;;;2026059;29;19917;-70
2023/01/14 04:18:33;;;;;;;;;;;8.30;99.90;;;;;;2027439;29;20377;-70
2023/01/14 04:19:34;;;;;;;;;;;8.30;99.90;;;;;;2026345;29;20333;-70
2023/01/14 04:20:35;;;;;;;;;;;8.30;99.90;;;;;;2024336;29;19907;-70
2023/01/14 04:21:35;;;;;;;;;;;8.30;99.90;;;;;;2023171;29;19915;-70
2023/01/14 04:22:36;;;;;;;;;;;8.30;99.90;;;;;;2023675;29;19962;-70
2023/01/14 04:23:36;;;;;;;;;;;8.30;99.90;;;;;;2022569;29;19950;-70
2023/01/14 04:24:37;;;;;;;;;;;8.30;99.90;;;;;;2024729;29;19919;-70
2023/01/14 04:25:37;;;;;;;;;;;8.30;99.90;;;;;;2026716;29;19959;-70
2023/01/14 04:26:37;;;;;;;;;;;8.30;99.90;;;;;;2027614;29;19962;-70
2023/01/14 04:27:38;;;;;;;;;;;8.30;99.90;;;;;;2025001;29;20351;-71
2023/01/14 04:28:38;;;;;;;;;;;8.30;99.90;;;;;;2023550;29;19947;-70
2023/01/14 04:29:39;;;;;;;;;;;8.30;99.90;;;;;;2027148;29;20415;-70
2023/01/14 04:30:41;;;;;;;;;;;8.30;99.90;;;;;;2024984;29;19923;-70
2023/01/14 04:31:41;;;;;;;;;;;8.30;99.90;;;;;;2024816;29;19915;-70
2023/01/14 04:32:42;;;;;;;;;;;8.30;99.90;;;;;;2024530;29;19918;-70
2023/01/14 04:33:42;;;;;;;;;;;8.30;99.90;;;;;;2022917;29;20010;-70
2023/01/14 04:34:43;;;;;;;;;;;8.30;99.90;;;;;;2025221;29;19908;-70
2023/01/14 04:35:44;;;;;;;;;;;8.30;99.90;;;;;;2025051;29;19917;-70
2023/01/14 04:36:44;;;;;;;;;;;8.30;99.90;;;;;;2023405;29;19915;-70
2023/01/14 04:37:45;;;;;;;;;;;8.30;99.90;;;;;;2025985;29;20026;-70
2023/01/14 04:38:46;;;;;;;;;;;8.30;99.90;;;;;;2025265;29;20084;-70
2023/01/14 04:39:46;;;;;;;;;;;8.30;99.90;;;;;;2022682;29;20352;-70
2023/01/14 04:40:50;;;;;;;;;;;8.30;99.90;;;;;;2026699;29;19911;-70
2023/01/14 04:43:10;;;;;;;;;;;8.30;99.90;;;;;;2021475;29;19919;-70
2023/01/14 04:44:10;;;;;;;;;;;8.30;99.90;;;;;;2025113;29;19907;-70
2023/01/14 04:45:11;;;;;;;;;;;8.30;99.90;;;;;;2023812;29;20229;-70
2023/01/14 04:46:12;;;;;;;;;;;8.30;99.90;;;;;;2024546;29;20434;-70
2023/01/14 04:47:12;;;;;;;;;;;8.20;99.90;;;;;;2025029;29;20343;-70
2023/01/14 04:48:13;;;;;;;;;;;8.30;99.90;;;;;;2023453;29;19926;-70
2023/01/14 04:49:13;;;;;;;;;;;8.30;99.90;;;;;;2024024;29;19918;-70
2023/01/14 04:50:33;;;;;;;;;;;8.20;99.90;;;;;;2025527;29;20295;-70
2023/01/14 04:51:34;;;;;;;;;;;8.20;99.90;;;;;;2022043;29;19919;-70
2023/01/14 04:52:34;;;;;;;;;;;8.20;99.90;;;;;;2024264;29;19952;-70
2023/01/14 04:53:35;;;;;;;;;;;8.20;99.90;;;;;;2025068;29;19918;-70
2023/01/14 04:54:35;;;;;;;;;;;8.20;99.90;;;;;;2025033;29;20006;-70
2023/01/14 04:55:39;;;;;;;;;;;8.20;99.90;;;;;;2022734;29;20359;-70
2023/01/14 04:56:40;;;;;;;;;;;8.20;99.90;;;;;;2026502;29;19919;-70
2023/01/14 04:57:40;;;;;;;;;;;8.20;99.90;;;;;;2023616;29;19915;-70
2023/01/14 04:58:41;;;;;;;;;;;8.20;99.90;;;;;;2024794;29;20034;-70
2023/01/14 04:59:41;;;;;;;;;;;8.20;99.90;;;;;;2025183;29;20323;-70
2023/01/14 05:00:42;;;;;;;;;;;8.20;99.90;;;;;;2024246;29;20370;-70
2023/01/14 05:01:43;;;;;;;;;;;8.20;99.90;;;;;;2023311;29;20284;-70
2023/01/14 05:02:43;;;;;;;;;;;8.20;99.90;;;;;;2024549;29;19969;-70
2023/01/14 05:03:44;;;;;;;;;;;8.20;99.90;;;;;;2024672;29;19915;-70
2023/01/14 05:04:44;;;;;;;;;;;8.20;99.90;;;;;;2026276;29;20332;-70
2023/01/14 05:05:45;;;;;;;;;;;8.20;99.90;;;;;;2021886;29;19923;-70
2023/01/14 05:06:45;;;;;;;;;;;8.20;99.90;;;;;;2025443;29;20539;-70
2023/01/14 05:07:46;;;;;;;;;;;8.20;99.90;;;;;;2024700;29;19915;-70
2023/01/14 05:08:48;;;;;;;;;;;8.20;99.90;;;;;;2025846;29;19911;-70
2023/01/14 05:09:49;;;;;;;;;;;8.20;99.90;;;;;;2023511;29;19915;-70
2023/01/14 05:10:49;;;;;;;;;;;8.20;99.90;;;;;;2023104;29;20252;-70
2023/01/14 05:11:50;;;;;;;;;;;8.20;99.90;;;;;;2021714;29;19954;-70
2023/01/14 05:12:56;;;;;;;;;;;8.20;99.90;;;;;;2024895;29;20631;-70
2023/01/14 05:13:57;;;;;;;;;;;8.20;99.90;;;;;;2022814;29;20447;-70
2023/01/14 05:14:57;;;;;;;;;;;8.20;99.90;;;;;;2025891;29;20022;-70
2023/01/14 05:15:59;;;;;;;;;;;8.20;99.90;;;;;;2022528;29;20040;-70
2023/01/14 05:17:00;;;;;;;;;;;8.20;99.90;;;;;;2024816;29;19922;-70
2023/01/14 05:18:00;;;;;;;;;;;8.20;99.90;;;;;;2021909;29;20395;-70
2023/01/14 05:19:01;;;;;;;;;;;8.20;99.90;;;;;;2023868;29;20486;-70
2023/01/14 05:20:01;;;;;;;;;;;8.10;99.90;;;;;;2024363;29;20328;-70
2023/01/14 05:21:02;;;;;;;;;;;8.10;99.90;;;;;;2025224;29;20335;-70
2023/01/14 05:22:03;;;;;;;;;;;8.10;99.90;;;;;;2024326;29;19965;-70
2023/01/14 05:23:05;;;;;;;;;;;8.10;99.90;;;;;;2023843;29;19972;-70
2023/01/14 05:24:05;;;;;;;;;;;8.10;99.90;;;;;;2025641;29;19915;-70
2023/01/14 05:25:06;;;;;;;;;;;8.10;99.90;;;;;;2025361;29;20378;-70
2023/01/14 05:26:07;;;;;;;;;;;8.10;99.90;;;;;;2023336;29;20018;-70
2023/01/14 05:27:07;;;;;;;;;;;8.20;99.90;;;;;;2024231;29;19957;-70
2023/01/14 05:28:12;;;;;;;;;;;8.10;99.90;;;;;;2023732;29;19908;-70
2023/01/14 05:29:12;;;;;;;;;;;8.10;99.90;;;;;;2025545;29;19915;-70
2023/01/14 05:30:13;;;;;;;;;;;8.10;99.90;;;;;;2022140;29;19919;-70
2023/01/14 05:31:13;;;;;;;;;;;8.10;99.90;;;;;;2024980;29;19911;-70
2023/01/14 05:32:14;;;;;;;;;;;8.10;99.90;;;;;;2023197;29;19914;-70
2023/01/14 05:33:15;;;;;;;;;;;8.10;99.90;;;;;;2023283;29;19950;-70
2023/01/14 05:34:17;;;;;;;;;;;8.10;99.90;;;;;;2028068;29;19912;-70
2023/01/14 05:35:17;;;;;;;;;;;8.10;99.90;;;;;;2024812;29;19954;-70
2023/01/14 05:36:18;;;;;;;;;;;8.10;99.90;;;;;;2026169;29;19915;-70
2023/01/14 05:37:18;;;;;;;;;;;8.10;99.90;;;;;;2025025;29;20006;-70
2023/01/14 05:38:19;;;;;;;;;;;8.10;99.90;;;;;;2026643;29;19908;-70
2023/01/14 05:39:19;;;;;;;;;;;8.10;99.90;;;;;;2025039;29;19925;-70
2023/01/14 05:40:20;;;;;;;;;;;8.10;99.90;;;;;;2025275;29;20308;-70
2023/01/14 05:41:20;;;;;;;;;;;8.10;99.90;;;;;;2024751;29;19923;-70
2023/01/14 05:46:37;;;;;;;;;;;8.10;99.90;;;;;;2026845;29;19911;-70
2023/01/14 05:47:38;;;;;;;;;;;8.10;99.90;;;;;;2024932;29;20006;-70
2023/01/14 05:48:38;;;;;;;;;;;8.10;99.90;;;;;;2024047;29;20331;-70
2023/01/14 05:49:39;;;;;;;;;;;8.10;99.90;;;;;;2023090;29;19911;-70
2023/01/14 05:50:39;;;;;;;;;;;8.10;99.90;;;;;;2026518;29;19939;-70
2023/01/14 05:51:39;;;;;;;;;;;8.10;99.90;;;;;;2025931;29;20060;-70
2023/01/14 05:52:40;;;;;;;;;;;8.10;99.90;;;;;;2026801;29;20038;-70
2023/01/14 05:53:40;;;;;;;;;;;8.10;99.90;;;;;;2023874;29;19915;-70
2023/01/14 05:54:41;;;;;;;;;;;8.10;99.90;;;;;;2018658;29;19912;-70
2023/01/14 05:55:41;;;;;;;;;;;8.10;99.90;;;;;;2026646;29;19915;-70
2023/01/14 05:56:42;;;;;;;;;;;8.10;99.90;;;;;;2027408;29;20002;-70
2023/01/14 05:57:42;;;;;;;;;;;8.10;99.90;;;;;;2024240;29;19915;-70
2023/01/14 05:58:43;;;;;;;;;;;8.10;99.90;;;;;;2026652;29;19918;-70
2023/01/14 05:59:43;;;;;;;;;;;8.10;99.90;;;;;;2026472;29;20011;-70
2023/01/14 06:07:11;;;;;;;;;;;8.10;99.90;;;;;;2025243;29;20990;-70
2023/01/14 06:08:12;;;;;;;;;;;8.10;99.90;;;;;;2024403;29;20306;-70
2023/01/14 06:09:12;;;;;;;;;;;8.10;99.90;;;;;;2025972;29;19945;-70
2023/01/14 06:10:13;;;;;;;;;;;8.10;99.90;;;;;;2026910;29;20010;-70
2023/01/14 06:11:13;;;;;;;;;;;8.10;99.90;;;;;;2023568;29;20690;-70
2023/01/14 06:12:33;;;;;;;;;;;8.10;99.90;;;;;;2026152;29;19918;-70
2023/01/14 06:13:34;;;;;;;;;;;8.10;99.90;;;;;;2025540;29;19927;-70
2023/01/14 06:14:35;;;;;;;;;;;8.10;99.90;;;;;;2025371;29;19942;-70
2023/01/14 06:15:36;;;;;;;;;;;8.10;99.90;;;;;;2023424;29;19912;-70
2023/01/14 06:16:40;;;;;;;;;;;8.10;99.90;;;;;;2028208;29;19918;-70
2023/01/14 06:17:45;;;;;;;;;;;8.10;99.90;;;;;;2026353;29;19937;-70
2023/01/14 06:18:46;;;;;;;;;;;8.10;99.90;;;;;;2027090;29;19914;-70
2023/01/14 06:19:46;;;;;;;;;;;8.10;99.90;;;;;;2028865;29;19985;-70
2023/01/14 06:20:51;;;;;;;;;;;8.10;99.90;;;;;;2025969;29;19930;-70
2023/01/14 06:21:51;;;;;;;;;;;8.10;99.90;;;;;;2025440;29;19923;-70
2023/01/14 06:22:55;;;;;;;;;;;8.10;99.90;;;;;;2029417;29;20013;-70
2023/01/14 06:23:56;;;;;;;;;;;8.10;99.90;;;;;;2024514;29;20264;-70
2023/01/14 06:24:56;;;;;;;;;;;8.10;99.90;;;;;;2026545;29;19933;-71
2023/01/14 06:25:57;;;;;;;;;;;8.10;99.90;;;;;;2024402;29;19915;-70
2023/01/14 06:26:57;;;;;;;;;;;8.20;99.90;;;;;;2024560;29;19911;-70
2023/01/14 06:27:58;;;;;;;;;;;8.10;99.90;;;;;;2026655;29;20818;-70
2023/01/14 06:28:59;;;;;;;;;;;8.10;99.90;;;;;;2026485;29;19912;-70
2023/01/14 06:30:00;;;;;;;;;;;8.20;99.90;;;;;;2026442;29;19919;-70
2023/01/14 06:31:00;;;;;;;;;;;8.20;99.90;;;;;;2028225;29;19919;-70
2023/01/14 06:32:00;;;;;;;;;;;8.20;99.90;;;;;;2026111;29;19979;-70